sensor_id;sensor_type;location;lat;lon;timestamp;P1;durP1;ratioP1;P2;durP2;ratioP2
74229;SDS011;62589;12.568;99.958;2022-09-21T00:01:06;3.55;;;1.33;;
74229;SDS011;62589;12.568;99.958;2022-09-21T00:03:35;3.63;;;1.55;;
74229;SDS011;62589;12.568;99.958;2022-09-21T00:06:06;3.50;;;1.30;;
74229;SDS011;62589;12.568;99.958;2022-09-21T00:08:35;5.05;;;1.30;;
74229;SDS011;62589;12.568;99.958;2022-09-21T00:11:02;3.17;;;1.40;;
74229;SDS011;62589;12.568;99.958;2022-09-21T00:13:30;3.65;;;1.40;;
74229;SDS011;62589;12.568;99.958;2022-09-21T00:15:58;4.20;;;1.40;;
74229;SDS011;62589;12.568;99.958;2022-09-21T00:18:25;3.05;;;1.52;;
74229;SDS011;62589;12.568;99.958;2022-09-21T00:20:52;1.60;;;0.93;;
74229;SDS011;62589;12.568;99.958;2022-09-21T00:23:19;4.88;;;1.40;;
74229;SDS011;62589;12.568;99.958;2022-09-21T00:25:46;3.83;;;1.10;;
74229;SDS011;62589;12.568;99.958;2022-09-21T00:28:12;3.72;;;1.23;;
74229;SDS011;62589;12.568;99.958;2022-09-21T00:30:39;3.83;;;1.20;;
74229;SDS011;62589;12.568;99.958;2022-09-21T00:33:05;7.05;;;1.52;;
74229;SDS011;62589;12.568;99.958;2022-09-21T00:35:32;2.45;;;1.40;;
74229;SDS011;62589;12.568;99.958;2022-09-21T00:37:59;3.90;;;1.40;;
74229;SDS011;62589;12.568;99.958;2022-09-21T00:40:27;4.85;;;1.40;;
74229;SDS011;62589;12.568;99.958;2022-09-21T00:45:36;3.47;;;1.30;;
74229;SDS011;62589;12.568;99.958;2022-09-21T00:48:03;2.40;;;1.30;;
74229;SDS011;62589;12.568;99.958;2022-09-21T00:50:30;3.72;;;1.40;;
74229;SDS011;62589;12.568;99.958;2022-09-21T00:52:58;3.17;;;1.15;;
74229;SDS011;62589;12.568;99.958;2022-09-21T00:55:44;3.55;;;1.50;;
74229;SDS011;62589;12.568;99.958;2022-09-21T00:58:15;3.20;;;1.42;;
74229;SDS011;62589;12.568;99.958;2022-09-21T01:00:45;3.40;;;1.55;;
74229;SDS011;62589;12.568;99.958;2022-09-21T01:03:12;2.78;;;1.38;;
74229;SDS011;62589;12.568;99.958;2022-09-21T01:05:38;2.80;;;1.70;;
74229;SDS011;62589;12.568;99.958;2022-09-21T01:08:05;3.50;;;1.30;;
74229;SDS011;62589;12.568;99.958;2022-09-21T01:10:50;3.83;;;1.35;;
74229;SDS011;62589;12.568;99.958;2022-09-21T01:13:42;2.90;;;1.58;;
74229;SDS011;62589;12.568;99.958;2022-09-21T01:30:55;6.63;;;1.75;;
74229;SDS011;62589;12.568;99.958;2022-09-21T01:33:35;5.43;;;2.00;;
74229;SDS011;62589;12.568;99.958;2022-09-21T01:36:10;2.92;;;1.92;;
74229;SDS011;62589;12.568;99.958;2022-09-21T01:38:45;5.25;;;2.28;;
74229;SDS011;62589;12.568;99.958;2022-09-21T01:41:16;4.05;;;2.85;;
74229;SDS011;62589;12.568;99.958;2022-09-21T01:43:47;6.65;;;3.47;;
74229;SDS011;62589;12.568;99.958;2022-09-21T01:46:20;5.80;;;3.35;;
74229;SDS011;62589;12.568;99.958;2022-09-21T01:48:52;8.55;;;3.85;;
74229;SDS011;62589;12.568;99.958;2022-09-21T01:51:24;6.15;;;3.55;;
74229;SDS011;62589;12.568;99.958;2022-09-21T01:53:54;6.03;;;3.20;;
74229;SDS011;62589;12.568;99.958;2022-09-21T01:56:29;5.45;;;3.15;;
74229;SDS011;62589;12.568;99.958;2022-09-21T01:59:12;3.53;;;2.80;;
74229;SDS011;62589;12.568;99.958;2022-09-21T02:02:10;3.85;;;2.80;;
74229;SDS011;62589;12.568;99.958;2022-09-21T02:04:40;3.78;;;2.30;;
74229;SDS011;62589;12.568;99.958;2022-09-21T02:07:07;3.67;;;2.17;;
74229;SDS011;62589;12.568;99.958;2022-09-21T02:09:35;5.70;;;2.25;;
74229;SDS011;62589;12.568;99.958;2022-09-21T02:12:03;4.22;;;2.33;;
74229;SDS011;62589;12.568;99.958;2022-09-21T02:14:30;4.10;;;2.13;;
74229;SDS011;62589;12.568;99.958;2022-09-21T02:25:55;2.05;;;1.23;;
74229;SDS011;62589;12.568;99.958;2022-09-21T02:31:53;3.15;;;1.83;;
74229;SDS011;62589;12.568;99.958;2022-09-21T02:34:35;4.95;;;1.23;;
74229;SDS011;62589;12.568;99.958;2022-09-21T02:37:16;5.25;;;1.77;;
74229;SDS011;62589;12.568;99.958;2022-09-21T02:42:49;3.20;;;1.98;;
74229;SDS011;62589;12.568;99.958;2022-09-21T02:45:25;4.28;;;2.15;;
74229;SDS011;62589;12.568;99.958;2022-09-21T02:50:47;3.38;;;2.13;;
74229;SDS011;62589;12.568;99.958;2022-09-21T02:53:19;3.58;;;2.28;;
74229;SDS011;62589;12.568;99.958;2022-09-21T02:55:59;3.92;;;2.05;;
74229;SDS011;62589;12.568;99.958;2022-09-21T02:58:28;3.05;;;2.10;;
74229;SDS011;62589;12.568;99.958;2022-09-21T03:00:56;3.88;;;1.83;;
74229;SDS011;62589;12.568;99.958;2022-09-21T03:03:24;3.78;;;2.10;;
74229;SDS011;62589;12.568;99.958;2022-09-21T03:05:51;4.32;;;1.70;;
74229;SDS011;62589;12.568;99.958;2022-09-21T03:08:20;4.82;;;1.90;;
74229;SDS011;62589;12.568;99.958;2022-09-21T03:10:47;4.38;;;2.10;;
74229;SDS011;62589;12.568;99.958;2022-09-21T03:13:15;2.75;;;1.38;;
74229;SDS011;62589;12.568;99.958;2022-09-21T03:15:42;5.47;;;1.85;;
74229;SDS011;62589;12.568;99.958;2022-09-21T03:18:11;2.90;;;1.35;;
74229;SDS011;62589;12.568;99.958;2022-09-21T03:20:38;3.38;;;1.48;;
74229;SDS011;62589;12.568;99.958;2022-09-21T03:23:10;3.57;;;1.13;;
74229;SDS011;62589;12.568;99.958;2022-09-21T03:25:37;3.92;;;1.50;;
74229;SDS011;62589;12.568;99.958;2022-09-21T03:28:04;3.67;;;1.23;;
74229;SDS011;62589;12.568;99.958;2022-09-21T03:30:31;4.10;;;1.30;;
74229;SDS011;62589;12.568;99.958;2022-09-21T03:32:58;3.92;;;1.30;;
74229;SDS011;62589;12.568;99.958;2022-09-21T03:35:24;4.15;;;1.40;;
74229;SDS011;62589;12.568;99.958;2022-09-21T03:37:51;5.35;;;1.30;;
74229;SDS011;62589;12.568;99.958;2022-09-21T03:40:19;3.78;;;0.93;;
74229;SDS011;62589;12.568;99.958;2022-09-21T03:42:47;5.78;;;1.85;;
74229;SDS011;62589;12.568;99.958;2022-09-21T03:45:14;4.32;;;1.30;;
74229;SDS011;62589;12.568;99.958;2022-09-21T03:47:41;2.95;;;1.05;;
74229;SDS011;62589;12.568;99.958;2022-09-21T03:50:08;4.22;;;1.20;;
74229;SDS011;62589;12.568;99.958;2022-09-21T03:52:35;3.45;;;1.23;;
74229;SDS011;62589;12.568;99.958;2022-09-21T03:55:04;1.80;;;1.10;;
74229;SDS011;62589;12.568;99.958;2022-09-21T03:57:32;4.55;;;1.40;;
74229;SDS011;62589;12.568;99.958;2022-09-21T04:00:00;2.80;;;1.33;;
74229;SDS011;62589;12.568;99.958;2022-09-21T04:02:28;3.65;;;1.50;;
74229;SDS011;62589;12.568;99.958;2022-09-21T04:04:56;2.22;;;1.38;;
74229;SDS011;62589;12.568;99.958;2022-09-21T04:07:23;7.68;;;1.73;;
74229;SDS011;62589;12.568;99.958;2022-09-21T04:09:50;3.90;;;1.45;;
74229;SDS011;62589;12.568;99.958;2022-09-21T04:12:21;3.13;;;1.33;;
74229;SDS011;62589;12.568;99.958;2022-09-21T04:14:48;3.45;;;1.58;;
74229;SDS011;62589;12.568;99.958;2022-09-21T04:17:15;2.28;;;1.30;;
74229;SDS011;62589;12.568;99.958;2022-09-21T04:19:42;4.15;;;1.80;;
74229;SDS011;62589;12.568;99.958;2022-09-21T04:22:10;3.35;;;1.45;;
74229;SDS011;62589;12.568;99.958;2022-09-21T04:24:37;4.00;;;1.38;;
74229;SDS011;62589;12.568;99.958;2022-09-21T04:27:06;3.97;;;1.60;;
74229;SDS011;62589;12.568;99.958;2022-09-21T04:29:34;6.85;;;1.63;;
74229;SDS011;62589;12.568;99.958;2022-09-21T04:32:02;4.88;;;1.73;;
74229;SDS011;62589;12.568;99.958;2022-09-21T04:34:29;6.38;;;1.60;;
74229;SDS011;62589;12.568;99.958;2022-09-21T04:36:57;3.90;;;1.35;;
74229;SDS011;62589;12.568;99.958;2022-09-21T04:39:25;4.65;;;1.50;;
74229;SDS011;62589;12.568;99.958;2022-09-21T04:41:52;3.65;;;1.38;;
74229;SDS011;62589;12.568;99.958;2022-09-21T04:44:19;3.90;;;1.88;;
74229;SDS011;62589;12.568;99.958;2022-09-21T04:46:46;4.22;;;1.80;;
74229;SDS011;62589;12.568;99.958;2022-09-21T04:49:13;3.42;;;1.70;;
74229;SDS011;62589;12.568;99.958;2022-09-21T04:51:41;4.22;;;1.77;;
74229;SDS011;62589;12.568;99.958;2022-09-21T04:54:08;4.80;;;1.40;;
74229;SDS011;62589;12.568;99.958;2022-09-21T04:56:35;2.97;;;1.50;;
74229;SDS011;62589;12.568;99.958;2022-09-21T04:59:02;5.30;;;1.52;;
74229;SDS011;62589;12.568;99.958;2022-09-21T05:01:30;3.00;;;1.45;;
74229;SDS011;62589;12.568;99.958;2022-09-21T05:04:01;5.07;;;1.95;;
74229;SDS011;62589;12.568;99.958;2022-09-21T05:06:29;4.63;;;1.88;;
74229;SDS011;62589;12.568;99.958;2022-09-21T05:08:58;2.83;;;1.40;;
74229;SDS011;62589;12.568;99.958;2022-09-21T05:11:37;5.93;;;1.90;;
74229;SDS011;62589;12.568;99.958;2022-09-21T05:14:04;4.93;;;1.70;;
74229;SDS011;62589;12.568;99.958;2022-09-21T05:16:31;2.65;;;1.60;;
74229;SDS011;62589;12.568;99.958;2022-09-21T05:18:59;3.33;;;1.67;;
74229;SDS011;62589;12.568;99.958;2022-09-21T05:21:26;3.60;;;1.70;;
74229;SDS011;62589;12.568;99.958;2022-09-21T05:23:56;2.53;;;1.63;;
74229;SDS011;62589;12.568;99.958;2022-09-21T05:26:23;3.17;;;1.35;;
74229;SDS011;62589;12.568;99.958;2022-09-21T05:28:50;4.22;;;1.65;;
74229;SDS011;62589;12.568;99.958;2022-09-21T05:31:29;2.13;;;1.30;;
74229;SDS011;62589;12.568;99.958;2022-09-21T05:37:11;2.70;;;1.38;;
74229;SDS011;62589;12.568;99.958;2022-09-21T05:39:55;3.40;;;1.40;;
74229;SDS011;62589;12.568;99.958;2022-09-21T05:42:22;4.43;;;1.90;;
74229;SDS011;62589;12.568;99.958;2022-09-21T05:44:50;3.63;;;1.60;;
74229;SDS011;62589;12.568;99.958;2022-09-21T05:47:23;5.57;;;1.80;;
74229;SDS011;62589;12.568;99.958;2022-09-21T05:50:32;3.88;;;1.85;;
74229;SDS011;62589;12.568;99.958;2022-09-21T06:05:12;4.18;;;2.10;;
74229;SDS011;62589;12.568;99.958;2022-09-21T06:07:40;4.82;;;1.85;;
74229;SDS011;62589;12.568;99.958;2022-09-21T06:10:08;3.83;;;1.83;;
74229;SDS011;62589;12.568;99.958;2022-09-21T06:12:37;5.60;;;2.03;;
74229;SDS011;62589;12.568;99.958;2022-09-21T06:15:05;4.35;;;1.88;;
74229;SDS011;62589;12.568;99.958;2022-09-21T06:17:36;3.90;;;2.08;;
74229;SDS011;62589;12.568;99.958;2022-09-21T06:20:03;3.78;;;1.90;;
74229;SDS011;62589;12.568;99.958;2022-09-21T06:22:32;4.18;;;2.00;;
74229;SDS011;62589;12.568;99.958;2022-09-21T06:25:00;3.80;;;1.98;;
74229;SDS011;62589;12.568;99.958;2022-09-21T06:27:27;7.65;;;2.65;;
74229;SDS011;62589;12.568;99.958;2022-09-21T06:29:54;5.75;;;2.10;;
74229;SDS011;62589;12.568;99.958;2022-09-21T06:32:22;4.47;;;2.22;;
74229;SDS011;62589;12.568;99.958;2022-09-21T06:34:49;5.10;;;1.77;;
74229;SDS011;62589;12.568;99.958;2022-09-21T06:37:17;4.28;;;1.75;;
74229;SDS011;62589;12.568;99.958;2022-09-21T06:39:44;7.72;;;2.05;;
74229;SDS011;62589;12.568;99.958;2022-09-21T06:42:11;3.58;;;1.95;;
74229;SDS011;62589;12.568;99.958;2022-09-21T06:44:38;6.90;;;2.30;;
74229;SDS011;62589;12.568;99.958;2022-09-21T06:47:05;6.35;;;2.08;;
74229;SDS011;62589;12.568;99.958;2022-09-21T06:49:34;8.02;;;2.42;;
74229;SDS011;62589;12.568;99.958;2022-09-21T06:52:01;5.43;;;2.03;;
74229;SDS011;62589;12.568;99.958;2022-09-21T06:54:29;6.07;;;2.03;;
74229;SDS011;62589;12.568;99.958;2022-09-21T06:56:56;6.15;;;1.83;;
74229;SDS011;62589;12.568;99.958;2022-09-21T06:59:23;6.15;;;2.05;;
74229;SDS011;62589;12.568;99.958;2022-09-21T07:01:50;2.65;;;1.77;;
74229;SDS011;62589;12.568;99.958;2022-09-21T07:04:21;4.57;;;1.73;;
74229;SDS011;62589;12.568;99.958;2022-09-21T07:06:49;7.18;;;1.75;;
74229;SDS011;62589;12.568;99.958;2022-09-21T07:09:16;6.38;;;2.35;;
74229;SDS011;62589;12.568;99.958;2022-09-21T07:11:43;4.43;;;2.08;;
74229;SDS011;62589;12.568;99.958;2022-09-21T07:14:11;9.20;;;2.03;;
74229;SDS011;62589;12.568;99.958;2022-09-21T07:16:39;3.55;;;1.85;;
74229;SDS011;62589;12.568;99.958;2022-09-21T07:19:06;5.97;;;2.13;;
74229;SDS011;62589;12.568;99.958;2022-09-21T07:21:33;4.57;;;1.80;;
74229;SDS011;62589;12.568;99.958;2022-09-21T07:24:01;4.22;;;1.92;;
74229;SDS011;62589;12.568;99.958;2022-09-21T07:26:28;8.50;;;2.47;;
74229;SDS011;62589;12.568;99.958;2022-09-21T07:28:55;4.50;;;1.75;;
74229;SDS011;62589;12.568;99.958;2022-09-21T07:31:22;3.47;;;1.70;;
74229;SDS011;62589;12.568;99.958;2022-09-21T07:33:54;4.90;;;1.88;;
74229;SDS011;62589;12.568;99.958;2022-09-21T07:36:25;4.18;;;1.92;;
74229;SDS011;62589;12.568;99.958;2022-09-21T07:38:52;6.47;;;2.00;;
74229;SDS011;62589;12.568;99.958;2022-09-21T07:41:20;4.82;;;2.00;;
74229;SDS011;62589;12.568;99.958;2022-09-21T07:43:47;3.83;;;1.83;;
74229;SDS011;62589;12.568;99.958;2022-09-21T07:46:15;5.15;;;1.77;;
74229;SDS011;62589;12.568;99.958;2022-09-21T07:48:42;7.18;;;2.08;;
74229;SDS011;62589;12.568;99.958;2022-09-21T07:51:10;4.15;;;2.15;;
74229;SDS011;62589;12.568;99.958;2022-09-21T07:53:40;4.95;;;1.75;;
74229;SDS011;62589;12.568;99.958;2022-09-21T07:56:13;3.20;;;1.27;;
74229;SDS011;62589;12.568;99.958;2022-09-21T07:58:44;5.68;;;2.05;;
74229;SDS011;62589;12.568;99.958;2022-09-21T08:01:23;6.93;;;1.52;;
74229;SDS011;62589;12.568;99.958;2022-09-21T08:03:52;6.68;;;2.08;;
74229;SDS011;62589;12.568;99.958;2022-09-21T08:06:21;3.33;;;1.75;;
74229;SDS011;62589;12.568;99.958;2022-09-21T08:08:50;9.57;;;2.15;;
74229;SDS011;62589;12.568;99.958;2022-09-21T08:11:19;4.15;;;1.80;;
74229;SDS011;62589;12.568;99.958;2022-09-21T08:13:47;4.80;;;2.00;;
74229;SDS011;62589;12.568;99.958;2022-09-21T08:16:17;7.78;;;2.95;;
74229;SDS011;62589;12.568;99.958;2022-09-21T08:18:45;4.28;;;1.88;;
74229;SDS011;62589;12.568;99.958;2022-09-21T08:21:12;5.20;;;2.45;;
74229;SDS011;62589;12.568;99.958;2022-09-21T08:23:39;6.75;;;1.90;;
74229;SDS011;62589;12.568;99.958;2022-09-21T08:26:09;3.97;;;1.52;;
74229;SDS011;62589;12.568;99.958;2022-09-21T08:28:43;4.25;;;2.03;;
74229;SDS011;62589;12.568;99.958;2022-09-21T08:31:15;4.03;;;1.83;;
74229;SDS011;62589;12.568;99.958;2022-09-21T08:33:44;5.55;;;2.00;;
74229;SDS011;62589;12.568;99.958;2022-09-21T08:36:12;7.82;;;3.10;;
74229;SDS011;62589;12.568;99.958;2022-09-21T08:38:39;5.85;;;2.58;;
74229;SDS011;62589;12.568;99.958;2022-09-21T08:41:16;3.70;;;2.10;;
74229;SDS011;62589;12.568;99.958;2022-09-21T08:43:54;8.38;;;2.40;;
74229;SDS011;62589;12.568;99.958;2022-09-21T08:46:26;8.63;;;2.15;;
74229;SDS011;62589;12.568;99.958;2022-09-21T08:49:00;3.28;;;1.60;;
74229;SDS011;62589;12.568;99.958;2022-09-21T08:51:36;4.43;;;1.65;;
74229;SDS011;62589;12.568;99.958;2022-09-21T08:54:12;5.00;;;1.63;;
74229;SDS011;62589;12.568;99.958;2022-09-21T08:56:48;3.25;;;1.80;;
74229;SDS011;62589;12.568;99.958;2022-09-21T08:59:15;2.42;;;1.38;;
74229;SDS011;62589;12.568;99.958;2022-09-21T09:01:53;3.50;;;1.85;;
74229;SDS011;62589;12.568;99.958;2022-09-21T09:04:38;4.30;;;2.00;;
74229;SDS011;62589;12.568;99.958;2022-09-21T09:07:20;6.10;;;2.50;;
74229;SDS011;62589;12.568;99.958;2022-09-21T09:16:03;5.68;;;2.15;;
74229;SDS011;62589;12.568;99.958;2022-09-21T09:18:47;4.47;;;1.85;;
74229;SDS011;62589;12.568;99.958;2022-09-21T09:21:37;4.90;;;1.90;;
74229;SDS011;62589;12.568;99.958;2022-09-21T09:24:10;5.18;;;2.00;;
74229;SDS011;62589;12.568;99.958;2022-09-21T09:26:54;4.32;;;1.85;;
74229;SDS011;62589;12.568;99.958;2022-09-21T09:29:34;5.43;;;1.88;;
74229;SDS011;62589;12.568;99.958;2022-09-21T09:32:16;6.15;;;2.42;;
74229;SDS011;62589;12.568;99.958;2022-09-21T09:37:41;2.95;;;1.95;;
74229;SDS011;62589;12.568;99.958;2022-09-21T09:40:11;5.32;;;2.25;;
74229;SDS011;62589;12.568;99.958;2022-09-21T09:42:49;5.35;;;2.08;;
74229;SDS011;62589;12.568;99.958;2022-09-21T09:45:34;4.00;;;2.20;;
74229;SDS011;62589;12.568;99.958;2022-09-21T09:48:25;5.00;;;2.00;;
74229;SDS011;62589;12.568;99.958;2022-09-21T09:51:14;6.88;;;2.30;;
74229;SDS011;62589;12.568;99.958;2022-09-21T09:53:42;5.22;;;2.45;;
74229;SDS011;62589;12.568;99.958;2022-09-21T09:56:09;6.68;;;2.63;;
74229;SDS011;62589;12.568;99.958;2022-09-21T10:04:11;4.05;;;2.33;;
74229;SDS011;62589;12.568;99.958;2022-09-21T10:06:42;7.10;;;2.58;;
74229;SDS011;62589;12.568;99.958;2022-09-21T10:12:16;4.47;;;2.00;;
74229;SDS011;62589;12.568;99.958;2022-09-21T10:14:50;3.65;;;1.88;;
74229;SDS011;62589;12.568;99.958;2022-09-21T10:17:18;1.95;;;1.42;;
74229;SDS011;62589;12.568;99.958;2022-09-21T10:19:46;4.72;;;2.00;;
74229;SDS011;62589;12.568;99.958;2022-09-21T10:22:15;5.68;;;2.55;;
74229;SDS011;62589;12.568;99.958;2022-09-21T10:24:45;2.88;;;1.80;;
74229;SDS011;62589;12.568;99.958;2022-09-21T10:27:18;5.10;;;2.10;;
74229;SDS011;62589;12.568;99.958;2022-09-21T10:29:56;6.07;;;2.30;;
74229;SDS011;62589;12.568;99.958;2022-09-21T10:32:24;4.72;;;2.08;;
74229;SDS011;62589;12.568;99.958;2022-09-21T10:37:45;2.45;;;1.90;;
74229;SDS011;62589;12.568;99.958;2022-09-21T10:43:02;4.38;;;2.33;;
74229;SDS011;62589;12.568;99.958;2022-09-21T10:45:30;6.25;;;2.72;;
74229;SDS011;62589;12.568;99.958;2022-09-21T10:48:08;3.75;;;2.33;;
74229;SDS011;62589;12.568;99.958;2022-09-21T10:50:44;4.43;;;2.58;;
74229;SDS011;62589;12.568;99.958;2022-09-21T10:56:02;4.43;;;2.30;;
74229;SDS011;62589;12.568;99.958;2022-09-21T11:01:45;3.13;;;2.17;;
74229;SDS011;62589;12.568;99.958;2022-09-21T11:04:30;6.15;;;3.42;;
74229;SDS011;62589;12.568;99.958;2022-09-21T11:07:19;9.02;;;4.03;;
74229;SDS011;62589;12.568;99.958;2022-09-21T11:12:57;10.00;;;4.40;;
74229;SDS011;62589;12.568;99.958;2022-09-21T11:15:49;8.85;;;4.15;;
74229;SDS011;62589;12.568;99.958;2022-09-21T11:24:15;7.45;;;3.78;;
74229;SDS011;62589;12.568;99.958;2022-09-21T11:26:58;5.95;;;3.22;;
74229;SDS011;62589;12.568;99.958;2022-09-21T11:29:43;5.72;;;2.83;;
74229;SDS011;62589;12.568;99.958;2022-09-21T11:35:44;9.00;;;3.60;;
74229;SDS011;62589;12.568;99.958;2022-09-21T11:41:36;3.42;;;2.10;;
74229;SDS011;62589;12.568;99.958;2022-09-21T11:44:18;4.82;;;2.47;;
74229;SDS011;62589;12.568;99.958;2022-09-21T11:47:13;4.35;;;2.47;;
74229;SDS011;62589;12.568;99.958;2022-09-21T11:50:08;3.60;;;2.55;;
74229;SDS011;62589;12.568;99.958;2022-09-21T11:58:32;6.28;;;2.40;;
74229;SDS011;62589;12.568;99.958;2022-09-21T12:12:50;5.22;;;2.50;;
74229;SDS011;62589;12.568;99.958;2022-09-21T12:21:21;4.47;;;1.83;;
74229;SDS011;62589;12.568;99.958;2022-09-21T12:24:05;3.10;;;2.05;;
74229;SDS011;62589;12.568;99.958;2022-09-21T12:26:42;4.45;;;2.22;;
74229;SDS011;62589;12.568;99.958;2022-09-21T12:29:16;4.75;;;2.55;;
74229;SDS011;62589;12.568;99.958;2022-09-21T12:32:12;7.00;;;2.97;;
74229;SDS011;62589;12.568;99.958;2022-09-21T12:34:48;5.95;;;2.70;;
74229;SDS011;62589;12.568;99.958;2022-09-21T12:40:23;5.40;;;2.28;;
74229;SDS011;62589;12.568;99.958;2022-09-21T12:45:57;5.07;;;2.67;;
74229;SDS011;62589;12.568;99.958;2022-09-21T12:48:45;6.38;;;3.38;;
74229;SDS011;62589;12.568;99.958;2022-09-21T12:51:26;8.07;;;3.67;;
74229;SDS011;62589;12.568;99.958;2022-09-21T12:54:06;4.43;;;3.45;;
74229;SDS011;62589;12.568;99.958;2022-09-21T12:56:44;6.85;;;3.50;;
74229;SDS011;62589;12.568;99.958;2022-09-21T13:02:20;5.68;;;3.60;;
74229;SDS011;62589;12.568;99.958;2022-09-21T13:05:06;4.90;;;3.42;;
74229;SDS011;62589;12.568;99.958;2022-09-21T13:10:45;5.38;;;2.95;;
74229;SDS011;62589;12.568;99.958;2022-09-21T13:13:24;5.00;;;3.05;;
74229;SDS011;62589;12.568;99.958;2022-09-21T13:16:00;5.53;;;3.00;;
74229;SDS011;62589;12.568;99.958;2022-09-21T13:18:47;6.07;;;2.97;;
74229;SDS011;62589;12.568;99.958;2022-09-21T13:21:23;5.72;;;2.80;;
74229;SDS011;62589;12.568;99.958;2022-09-21T13:23:54;5.97;;;2.75;;
74229;SDS011;62589;12.568;99.958;2022-09-21T13:26:36;4.35;;;2.80;;
74229;SDS011;62589;12.568;99.958;2022-09-21T13:29:29;4.75;;;2.25;;
74229;SDS011;62589;12.568;99.958;2022-09-21T13:34:47;4.55;;;2.42;;
74229;SDS011;62589;12.568;99.958;2022-09-21T13:40:29;2.92;;;1.60;;
74229;SDS011;62589;12.568;99.958;2022-09-21T13:43:15;3.13;;;1.95;;
74229;SDS011;62589;12.568;99.958;2022-09-21T13:45:51;2.97;;;1.52;;
74229;SDS011;62589;12.568;99.958;2022-09-21T13:48:23;2.92;;;1.70;;
74229;SDS011;62589;12.568;99.958;2022-09-21T13:50:57;3.45;;;1.60;;
74229;SDS011;62589;12.568;99.958;2022-09-21T13:53:29;3.70;;;1.50;;
74229;SDS011;62589;12.568;99.958;2022-09-21T13:56:01;3.65;;;1.50;;
74229;SDS011;62589;12.568;99.958;2022-09-21T13:58:39;3.78;;;1.55;;
74229;SDS011;62589;12.568;99.958;2022-09-21T14:03:59;4.10;;;1.90;;
74229;SDS011;62589;12.568;99.958;2022-09-21T14:06:40;5.43;;;1.85;;
74229;SDS011;62589;12.568;99.958;2022-09-21T14:11:55;4.45;;;2.03;;
74229;SDS011;62589;12.568;99.958;2022-09-21T14:14:33;6.07;;;2.42;;
74229;SDS011;62589;12.568;99.958;2022-09-21T14:20:00;3.70;;;1.90;;
74229;SDS011;62589;12.568;99.958;2022-09-21T14:22:31;2.88;;;1.88;;
74229;SDS011;62589;12.568;99.958;2022-09-21T14:27:48;3.45;;;1.73;;
74229;SDS011;62589;12.568;99.958;2022-09-21T14:30:21;3.97;;;2.05;;
74229;SDS011;62589;12.568;99.958;2022-09-21T14:35:50;3.15;;;2.08;;
74229;SDS011;62589;12.568;99.958;2022-09-21T14:38:21;3.95;;;2.08;;
74229;SDS011;62589;12.568;99.958;2022-09-21T14:40:53;3.92;;;1.90;;
74229;SDS011;62589;12.568;99.958;2022-09-21T14:43:29;4.78;;;1.80;;
74229;SDS011;62589;12.568;99.958;2022-09-21T14:46:13;3.50;;;1.90;;
74229;SDS011;62589;12.568;99.958;2022-09-21T14:51:58;4.53;;;1.90;;
74229;SDS011;62589;12.568;99.958;2022-09-21T15:00:17;4.53;;;2.30;;
74229;SDS011;62589;12.568;99.958;2022-09-21T15:02:56;3.38;;;1.88;;
74229;SDS011;62589;12.568;99.958;2022-09-21T15:05:45;5.68;;;2.22;;
74229;SDS011;62589;12.568;99.958;2022-09-21T15:08:35;6.03;;;2.20;;
74229;SDS011;62589;12.568;99.958;2022-09-21T15:11:38;3.33;;;2.22;;
74229;SDS011;62589;12.568;99.958;2022-09-21T15:19:58;6.28;;;2.22;;
74229;SDS011;62589;12.568;99.958;2022-09-21T15:22:43;5.78;;;2.05;;
74229;SDS011;62589;12.568;99.958;2022-09-21T15:25:11;4.68;;;2.13;;
74229;SDS011;62589;12.568;99.958;2022-09-21T15:27:41;3.55;;;1.88;;
74229;SDS011;62589;12.568;99.958;2022-09-21T15:32:52;2.85;;;1.50;;
74229;SDS011;62589;12.568;99.958;2022-09-21T15:35:25;5.03;;;2.50;;
74229;SDS011;62589;12.568;99.958;2022-09-21T15:37:55;4.10;;;2.10;;
74229;SDS011;62589;12.568;99.958;2022-09-21T15:40:27;7.38;;;2.00;;
74229;SDS011;62589;12.568;99.958;2022-09-21T15:42:58;3.60;;;1.70;;
74229;SDS011;62589;12.568;99.958;2022-09-21T15:45:52;3.05;;;1.80;;
74229;SDS011;62589;12.568;99.958;2022-09-21T15:48:27;2.40;;;1.70;;
74229;SDS011;62589;12.568;99.958;2022-09-21T15:51:03;4.35;;;1.50;;
74229;SDS011;62589;12.568;99.958;2022-09-21T15:53:43;6.40;;;1.92;;
74229;SDS011;62589;12.568;99.958;2022-09-21T15:56:20;3.38;;;1.50;;
74229;SDS011;62589;12.568;99.958;2022-09-21T15:58:50;2.95;;;1.40;;
74229;SDS011;62589;12.568;99.958;2022-09-21T16:01:43;4.68;;;1.83;;
74229;SDS011;62589;12.568;99.958;2022-09-21T16:04:16;4.50;;;2.05;;
74229;SDS011;62589;12.568;99.958;2022-09-21T16:17:55;2.58;;;1.80;;
74229;SDS011;62589;12.568;99.958;2022-09-21T16:23:22;5.20;;;1.92;;
74229;SDS011;62589;12.568;99.958;2022-09-21T16:25:55;4.72;;;1.70;;
74229;SDS011;62589;12.568;99.958;2022-09-21T16:28:36;3.30;;;1.75;;
74229;SDS011;62589;12.568;99.958;2022-09-21T16:34:04;4.05;;;2.35;;
74229;SDS011;62589;12.568;99.958;2022-09-21T16:36:43;4.70;;;2.40;;
74229;SDS011;62589;12.568;99.958;2022-09-21T16:39:13;7.97;;;2.30;;
74229;SDS011;62589;12.568;99.958;2022-09-21T16:42:00;5.13;;;2.30;;
74229;SDS011;62589;12.568;99.958;2022-09-21T16:44:29;5.97;;;2.65;;
74229;SDS011;62589;12.568;99.958;2022-09-21T16:47:08;6.55;;;2.85;;
74229;SDS011;62589;12.568;99.958;2022-09-21T16:49:39;6.25;;;2.08;;
74229;SDS011;62589;12.568;99.958;2022-09-21T16:52:06;5.63;;;2.22;;
74229;SDS011;62589;12.568;99.958;2022-09-21T16:54:33;6.75;;;2.55;;
74229;SDS011;62589;12.568;99.958;2022-09-21T16:57:02;4.00;;;2.20;;
74229;SDS011;62589;12.568;99.958;2022-09-21T16:59:31;5.13;;;2.30;;
74229;SDS011;62589;12.568;99.958;2022-09-21T17:01:59;8.25;;;2.22;;
74229;SDS011;62589;12.568;99.958;2022-09-21T17:04:29;3.63;;;2.15;;
74229;SDS011;62589;12.568;99.958;2022-09-21T17:06:57;4.68;;;2.33;;
74229;SDS011;62589;12.568;99.958;2022-09-21T17:09:35;4.80;;;2.10;;
74229;SDS011;62589;12.568;99.958;2022-09-21T17:12:04;6.55;;;2.70;;
74229;SDS011;62589;12.568;99.958;2022-09-21T17:14:33;6.63;;;2.75;;
74229;SDS011;62589;12.568;99.958;2022-09-21T17:17:02;7.63;;;2.40;;
74229;SDS011;62589;12.568;99.958;2022-09-21T17:19:41;6.80;;;2.83;;
74229;SDS011;62589;12.568;99.958;2022-09-21T17:22:11;7.40;;;2.60;;
74229;SDS011;62589;12.568;99.958;2022-09-21T17:24:46;6.07;;;2.95;;
74229;SDS011;62589;12.568;99.958;2022-09-21T17:27:14;5.80;;;2.30;;
74229;SDS011;62589;12.568;99.958;2022-09-21T17:29:42;6.22;;;2.65;;
74229;SDS011;62589;12.568;99.958;2022-09-21T17:32:20;5.85;;;2.83;;
74229;SDS011;62589;12.568;99.958;2022-09-21T17:37:41;4.65;;;2.85;;
74229;SDS011;62589;12.568;99.958;2022-09-21T17:40:09;7.05;;;2.63;;
74229;SDS011;62589;12.568;99.958;2022-09-21T17:42:40;5.85;;;2.80;;
74229;SDS011;62589;12.568;99.958;2022-09-21T17:45:19;7.85;;;2.72;;
74229;SDS011;62589;12.568;99.958;2022-09-21T17:47:54;5.47;;;2.65;;
74229;SDS011;62589;12.568;99.958;2022-09-21T17:50:25;5.35;;;2.78;;
74229;SDS011;62589;12.568;99.958;2022-09-21T17:52:53;6.55;;;2.75;;
74229;SDS011;62589;12.568;99.958;2022-09-21T17:55:32;5.50;;;2.78;;
74229;SDS011;62589;12.568;99.958;2022-09-21T18:01:05;6.15;;;2.70;;
74229;SDS011;62589;12.568;99.958;2022-09-21T18:03:38;6.65;;;2.83;;
74229;SDS011;62589;12.568;99.958;2022-09-21T18:06:06;4.82;;;2.22;;
74229;SDS011;62589;12.568;99.958;2022-09-21T18:08:35;4.60;;;2.75;;
74229;SDS011;62589;12.568;99.958;2022-09-21T18:23:13;5.60;;;2.83;;
74229;SDS011;62589;12.568;99.958;2022-09-21T18:25:46;6.30;;;2.70;;
74229;SDS011;62589;12.568;99.958;2022-09-21T18:34:04;5.78;;;2.42;;